sensor_id;sensor_type;location;lat;lon;timestamp;P1;durP1;ratioP1;P2;durP2;ratioP2
1074;SDS011;526;51.392;12.448;2023-04-08T00:00:00;1.30;;;1.20;;
1074;SDS011;526;51.392;12.448;2023-04-08T00:02:26;1.90;;;1.80;;
1074;SDS011;526;51.392;12.448;2023-04-08T00:04:52;1.83;;;1.73;;
1074;SDS011;526;51.392;12.448;2023-04-08T00:07:17;2.00;;;1.50;;
1074;SDS011;526;51.392;12.448;2023-04-08T00:09:42;2.10;;;1.67;;
1074;SDS011;526;51.392;12.448;2023-04-08T00:12:08;3.00;;;1.97;;
1074;SDS011;526;51.392;12.448;2023-04-08T00:14:33;3.37;;;1.77;;
1074;SDS011;526;51.392;12.448;2023-04-08T00:16:59;2.17;;;2.00;;
1074;SDS011;526;51.392;12.448;2023-04-08T00:19:25;4.07;;;2.00;;
1074;SDS011;526;51.392;12.448;2023-04-08T00:21:50;5.33;;;1.83;;
1074;SDS011;526;51.392;12.448;2023-04-08T00:24:17;1.30;;;1.20;;
1074;SDS011;526;51.392;12.448;2023-04-08T00:26:42;4.00;;;2.60;;
1074;SDS011;526;51.392;12.448;2023-04-08T00:29:08;1.53;;;1.47;;
1074;SDS011;526;51.392;12.448;2023-04-08T00:31:33;1.77;;;1.43;;
1074;SDS011;526;51.392;12.448;2023-04-08T00:33:59;1.30;;;1.23;;
1074;SDS011;526;51.392;12.448;2023-04-08T00:36:24;1.60;;;1.50;;
1074;SDS011;526;51.392;12.448;2023-04-08T00:38:51;1.60;;;1.53;;
1074;SDS011;526;51.392;12.448;2023-04-08T00:41:17;1.43;;;1.30;;
1074;SDS011;526;51.392;12.448;2023-04-08T00:43:42;2.40;;;1.73;;
1074;SDS011;526;51.392;12.448;2023-04-08T00:46:08;1.70;;;1.60;;
1074;SDS011;526;51.392;12.448;2023-04-08T00:48:33;3.67;;;1.40;;
1074;SDS011;526;51.392;12.448;2023-04-08T00:50:59;1.23;;;1.13;;
1074;SDS011;526;51.392;12.448;2023-04-08T00:53:24;1.87;;;1.83;;
1074;SDS011;526;51.392;12.448;2023-04-08T00:55:50;1.77;;;1.73;;
1074;SDS011;526;51.392;12.448;2023-04-08T00:58:16;2.60;;;2.30;;
1074;SDS011;526;51.392;12.448;2023-04-08T01:00:42;2.23;;;1.70;;
1074;SDS011;526;51.392;12.448;2023-04-08T01:03:16;1.30;;;1.20;;
1074;SDS011;526;51.392;12.448;2023-04-08T01:08:25;3.70;;;1.50;;
1074;SDS011;526;51.392;12.448;2023-04-08T01:10:53;1.90;;;1.80;;
1074;SDS011;526;51.392;12.448;2023-04-08T01:13:25;1.33;;;1.30;;
1074;SDS011;526;51.392;12.448;2023-04-08T01:15:55;3.07;;;2.90;;
1074;SDS011;526;51.392;12.448;2023-04-08T01:18:21;1.30;;;1.20;;
1074;SDS011;526;51.392;12.448;2023-04-08T01:20:47;2.60;;;2.13;;
1074;SDS011;526;51.392;12.448;2023-04-08T01:23:29;1.87;;;1.47;;
1074;SDS011;526;51.392;12.448;2023-04-08T01:26:03;2.77;;;1.50;;
1074;SDS011;526;51.392;12.448;2023-04-08T01:28:29;2.07;;;1.97;;
1074;SDS011;526;51.392;12.448;2023-04-08T01:30:57;2.40;;;1.50;;
1074;SDS011;526;51.392;12.448;2023-04-08T01:33:24;1.50;;;1.40;;
1074;SDS011;526;51.392;12.448;2023-04-08T01:35:52;18.43;;;2.03;;
1074;SDS011;526;51.392;12.448;2023-04-08T01:38:20;1.63;;;1.53;;
1074;SDS011;526;51.392;12.448;2023-04-08T01:40:48;2.07;;;1.93;;
1074;SDS011;526;51.392;12.448;2023-04-08T01:43:15;1.87;;;1.77;;
1074;SDS011;526;51.392;12.448;2023-04-08T01:45:43;3.63;;;2.63;;
1074;SDS011;526;51.392;12.448;2023-04-08T01:48:11;1.83;;;1.73;;
1074;SDS011;526;51.392;12.448;2023-04-08T01:50:38;1.70;;;1.60;;
1074;SDS011;526;51.392;12.448;2023-04-08T01:53:08;3.23;;;3.03;;
1074;SDS011;526;51.392;12.448;2023-04-08T01:55:35;1.67;;;1.40;;
1074;SDS011;526;51.392;12.448;2023-04-08T01:58:02;1.20;;;1.10;;
1074;SDS011;526;51.392;12.448;2023-04-08T02:00:30;6.53;;;1.67;;
1074;SDS011;526;51.392;12.448;2023-04-08T02:02:57;1.63;;;1.30;;
1074;SDS011;526;51.392;12.448;2023-04-08T02:05:24;1.30;;;1.20;;
1074;SDS011;526;51.392;12.448;2023-04-08T02:07:50;1.60;;;1.50;;
1074;SDS011;526;51.392;12.448;2023-04-08T02:10:18;1.80;;;1.70;;
1074;SDS011;526;51.392;12.448;2023-04-08T02:12:44;4.77;;;2.53;;
1074;SDS011;526;51.392;12.448;2023-04-08T02:15:10;1.73;;;1.63;;
1074;SDS011;526;51.392;12.448;2023-04-08T02:17:51;2.00;;;1.90;;
1074;SDS011;526;51.392;12.448;2023-04-08T02:22:54;1.63;;;1.60;;
1074;SDS011;526;51.392;12.448;2023-04-08T02:25:27;3.70;;;2.87;;
1074;SDS011;526;51.392;12.448;2023-04-08T02:27:54;1.90;;;1.80;;
1074;SDS011;526;51.392;12.448;2023-04-08T02:30:20;3.70;;;1.93;;
1074;SDS011;526;51.392;12.448;2023-04-08T02:32:47;1.87;;;1.60;;
1074;SDS011;526;51.392;12.448;2023-04-08T02:35:14;1.97;;;1.87;;
1074;SDS011;526;51.392;12.448;2023-04-08T02:37:41;5.07;;;2.17;;
1074;SDS011;526;51.392;12.448;2023-04-08T02:40:22;1.40;;;1.30;;
1074;SDS011;526;51.392;12.448;2023-04-08T02:42:50;1.03;;;1.00;;
1074;SDS011;526;51.392;12.448;2023-04-08T02:45:16;1.40;;;1.30;;
1074;SDS011;526;51.392;12.448;2023-04-08T02:47:41;2.80;;;1.90;;
1074;SDS011;526;51.392;12.448;2023-04-08T02:50:07;2.47;;;2.13;;
1074;SDS011;526;51.392;12.448;2023-04-08T02:52:33;1.23;;;1.20;;
1074;SDS011;526;51.392;12.448;2023-04-08T02:54:58;4.10;;;1.63;;
1074;SDS011;526;51.392;12.448;2023-04-08T02:57:24;3.30;;;3.10;;
1074;SDS011;526;51.392;12.448;2023-04-08T02:59:49;3.67;;;2.80;;
1074;SDS011;526;51.392;12.448;2023-04-08T03:02:15;2.23;;;2.10;;
1074;SDS011;526;51.392;12.448;2023-04-08T03:04:41;3.03;;;2.57;;
1074;SDS011;526;51.392;12.448;2023-04-08T03:07:06;7.37;;;2.90;;
1074;SDS011;526;51.392;12.448;2023-04-08T03:09:32;6.63;;;2.33;;
1074;SDS011;526;51.392;12.448;2023-04-08T03:11:57;2.73;;;2.10;;
1074;SDS011;526;51.392;12.448;2023-04-08T03:14:23;2.50;;;1.90;;
1074;SDS011;526;51.392;12.448;2023-04-08T03:16:48;3.90;;;2.17;;
1074;SDS011;526;51.392;12.448;2023-04-08T03:19:14;1.70;;;1.60;;
1074;SDS011;526;51.392;12.448;2023-04-08T03:21:40;5.43;;;1.77;;
1074;SDS011;526;51.392;12.448;2023-04-08T03:24:05;3.03;;;2.83;;
1074;SDS011;526;51.392;12.448;2023-04-08T03:26:31;1.70;;;1.60;;
1074;SDS011;526;51.392;12.448;2023-04-08T03:28:56;4.27;;;1.80;;
1074;SDS011;526;51.392;12.448;2023-04-08T03:31:22;3.00;;;2.80;;
1074;SDS011;526;51.392;12.448;2023-04-08T03:33:47;3.27;;;2.23;;
1074;SDS011;526;51.392;12.448;2023-04-08T03:36:13;1.80;;;1.47;;
1074;SDS011;526;51.392;12.448;2023-04-08T03:38:38;3.97;;;2.67;;
1074;SDS011;526;51.392;12.448;2023-04-08T03:41:04;1.97;;;1.87;;
1074;SDS011;526;51.392;12.448;2023-04-08T03:43:29;3.07;;;2.87;;
1074;SDS011;526;51.392;12.448;2023-04-08T03:45:55;1.10;;;1.00;;
1074;SDS011;526;51.392;12.448;2023-04-08T03:48:21;5.87;;;2.40;;
1074;SDS011;526;51.392;12.448;2023-04-08T03:50:47;3.70;;;2.33;;
1074;SDS011;526;51.392;12.448;2023-04-08T03:53:12;2.20;;;1.73;;
1074;SDS011;526;51.392;12.448;2023-04-08T03:55:38;2.60;;;2.33;;
1074;SDS011;526;51.392;12.448;2023-04-08T03:58:04;1.30;;;1.20;;
1074;SDS011;526;51.392;12.448;2023-04-08T04:00:29;1.23;;;1.13;;
1074;SDS011;526;51.392;12.448;2023-04-08T04:02:55;1.57;;;1.47;;
1074;SDS011;526;51.392;12.448;2023-04-08T04:05:21;1.10;;;1.00;;
1074;SDS011;526;51.392;12.448;2023-04-08T04:07:46;4.30;;;2.37;;
1074;SDS011;526;51.392;12.448;2023-04-08T04:10:12;2.30;;;1.93;;
1074;SDS011;526;51.392;12.448;2023-04-08T04:12:37;1.73;;;1.23;;
1074;SDS011;526;51.392;12.448;2023-04-08T04:15:03;4.13;;;2.73;;
1074;SDS011;526;51.392;12.448;2023-04-08T04:17:29;5.80;;;2.10;;
1074;SDS011;526;51.392;12.448;2023-04-08T04:19:54;1.27;;;1.17;;
1074;SDS011;526;51.392;12.448;2023-04-08T04:22:20;1.40;;;1.30;;
1074;SDS011;526;51.392;12.448;2023-04-08T04:24:46;7.83;;;2.70;;
1074;SDS011;526;51.392;12.448;2023-04-08T04:27:12;1.20;;;1.10;;
1074;SDS011;526;51.392;12.448;2023-04-08T04:29:38;1.67;;;1.50;;
1074;SDS011;526;51.392;12.448;2023-04-08T04:32:03;2.20;;;1.67;;
1074;SDS011;526;51.392;12.448;2023-04-08T04:34:30;1.20;;;1.10;;
1074;SDS011;526;51.392;12.448;2023-04-08T04:36:56;1.63;;;1.53;;
1074;SDS011;526;51.392;12.448;2023-04-08T04:39:21;1.90;;;1.80;;
1074;SDS011;526;51.392;12.448;2023-04-08T04:41:47;1.83;;;1.50;;
1074;SDS011;526;51.392;12.448;2023-04-08T04:44:13;1.37;;;1.27;;
1074;SDS011;526;51.392;12.448;2023-04-08T04:46:41;1.37;;;1.27;;
1074;SDS011;526;51.392;12.448;2023-04-08T04:49:06;1.57;;;1.17;;
1074;SDS011;526;51.392;12.448;2023-04-08T04:51:32;5.13;;;2.97;;
1074;SDS011;526;51.392;12.448;2023-04-08T04:53:57;1.23;;;1.13;;
1074;SDS011;526;51.392;12.448;2023-04-08T04:56:23;6.00;;;2.47;;
1074;SDS011;526;51.392;12.448;2023-04-08T04:58:50;1.17;;;1.07;;
1074;SDS011;526;51.392;12.448;2023-04-08T05:01:16;1.40;;;1.30;;
1074;SDS011;526;51.392;12.448;2023-04-08T05:03:41;1.90;;;1.70;;
1074;SDS011;526;51.392;12.448;2023-04-08T05:06:07;4.67;;;1.73;;
1074;SDS011;526;51.392;12.448;2023-04-08T05:08:32;1.80;;;1.70;;
1074;SDS011;526;51.392;12.448;2023-04-08T05:10:58;1.20;;;1.10;;
1074;SDS011;526;51.392;12.448;2023-04-08T05:13:26;2.73;;;2.03;;
1074;SDS011;526;51.392;12.448;2023-04-08T05:15:52;4.27;;;3.00;;
1074;SDS011;526;51.392;12.448;2023-04-08T05:18:17;3.43;;;1.73;;
1074;SDS011;526;51.392;12.448;2023-04-08T05:20:43;2.20;;;1.90;;
1074;SDS011;526;51.392;12.448;2023-04-08T05:23:09;6.40;;;2.90;;
1074;SDS011;526;51.392;12.448;2023-04-08T05:25:35;3.83;;;1.67;;
1074;SDS011;526;51.392;12.448;2023-04-08T05:28:03;1.77;;;1.67;;
1074;SDS011;526;51.392;12.448;2023-04-08T05:30:28;0.90;;;0.80;;
1074;SDS011;526;51.392;12.448;2023-04-08T05:32:54;2.30;;;1.83;;
1074;SDS011;526;51.392;12.448;2023-04-08T05:35:20;1.63;;;1.53;;
1074;SDS011;526;51.392;12.448;2023-04-08T05:37:48;1.63;;;1.53;;
1074;SDS011;526;51.392;12.448;2023-04-08T05:40:14;1.57;;;1.00;;
1074;SDS011;526;51.392;12.448;2023-04-08T05:42:41;1.00;;;0.90;;
1074;SDS011;526;51.392;12.448;2023-04-08T05:45:07;1.00;;;1.00;;
1074;SDS011;526;51.392;12.448;2023-04-08T05:47:34;1.70;;;1.60;;
1074;SDS011;526;51.392;12.448;2023-04-08T05:50:01;7.80;;;4.27;;
1074;SDS011;526;51.392;12.448;2023-04-08T05:52:27;1.43;;;1.37;;
1074;SDS011;526;51.392;12.448;2023-04-08T05:54:55;2.83;;;2.63;;
1074;SDS011;526;51.392;12.448;2023-04-08T05:57:24;1.83;;;1.20;;
1074;SDS011;526;51.392;12.448;2023-04-08T05:59:54;1.73;;;1.63;;
1074;SDS011;526;51.392;12.448;2023-04-08T06:02:29;1.33;;;1.23;;
1074;SDS011;526;51.392;12.448;2023-04-08T06:04:57;2.63;;;2.30;;
1074;SDS011;526;51.392;12.448;2023-04-08T06:07:27;1.80;;;1.40;;
1074;SDS011;526;51.392;12.448;2023-04-08T06:09:53;5.13;;;1.90;;
1074;SDS011;526;51.392;12.448;2023-04-08T06:12:19;1.13;;;1.03;;
1074;SDS011;526;51.392;12.448;2023-04-08T06:14:45;8.83;;;2.40;;
1074;SDS011;526;51.392;12.448;2023-04-08T06:17:10;3.77;;;1.63;;
1074;SDS011;526;51.392;12.448;2023-04-08T06:19:36;3.70;;;1.30;;
1074;SDS011;526;51.392;12.448;2023-04-08T06:22:01;4.30;;;2.10;;
1074;SDS011;526;51.392;12.448;2023-04-08T06:24:27;4.73;;;3.30;;
1074;SDS011;526;51.392;12.448;2023-04-08T06:26:53;2.60;;;2.40;;
1074;SDS011;526;51.392;12.448;2023-04-08T06:29:20;1.93;;;1.83;;
1074;SDS011;526;51.392;12.448;2023-04-08T06:31:48;2.50;;;1.20;;
1074;SDS011;526;51.392;12.448;2023-04-08T06:34:14;1.77;;;1.67;;
1074;SDS011;526;51.392;12.448;2023-04-08T06:36:42;6.10;;;3.10;;
1074;SDS011;526;51.392;12.448;2023-04-08T06:39:08;1.87;;;1.73;;
1074;SDS011;526;51.392;12.448;2023-04-08T06:41:33;4.67;;;2.40;;
1074;SDS011;526;51.392;12.448;2023-04-08T06:43:59;1.27;;;1.17;;
1074;SDS011;526;51.392;12.448;2023-04-08T06:46:25;4.07;;;2.37;;
1074;SDS011;526;51.392;12.448;2023-04-08T06:48:51;2.03;;;1.90;;
1074;SDS011;526;51.392;12.448;2023-04-08T06:51:16;15.03;;;2.33;;
1074;SDS011;526;51.392;12.448;2023-04-08T06:53:42;5.17;;;2.30;;
1074;SDS011;526;51.392;12.448;2023-04-08T06:56:07;9.57;;;3.07;;
1074;SDS011;526;51.392;12.448;2023-04-08T06:58:33;7.53;;;3.90;;
1074;SDS011;526;51.392;12.448;2023-04-08T07:00:58;9.40;;;3.27;;
1074;SDS011;526;51.392;12.448;2023-04-08T07:03:25;3.43;;;2.80;;
1074;SDS011;526;51.392;12.448;2023-04-08T07:05:51;6.83;;;2.97;;
1074;SDS011;526;51.392;12.448;2023-04-08T07:08:19;2.73;;;2.03;;
1074;SDS011;526;51.392;12.448;2023-04-08T07:10:45;4.97;;;3.17;;
1074;SDS011;526;51.392;12.448;2023-04-08T07:13:12;4.20;;;2.80;;
1074;SDS011;526;51.392;12.448;2023-04-08T07:15:38;11.37;;;4.57;;
1074;SDS011;526;51.392;12.448;2023-04-08T07:18:04;5.80;;;2.80;;
1074;SDS011;526;51.392;12.448;2023-04-08T07:20:30;3.77;;;3.57;;
1074;SDS011;526;51.392;12.448;2023-04-08T07:22:55;3.63;;;2.00;;
1074;SDS011;526;51.392;12.448;2023-04-08T07:25:21;7.50;;;4.27;;
1074;SDS011;526;51.392;12.448;2023-04-08T07:27:46;7.00;;;3.10;;
1074;SDS011;526;51.392;12.448;2023-04-08T07:30:12;10.23;;;5.40;;
1074;SDS011;526;51.392;12.448;2023-04-08T07:32:38;4.17;;;3.97;;
1074;SDS011;526;51.392;12.448;2023-04-08T07:35:06;7.67;;;6.60;;
1074;SDS011;526;51.392;12.448;2023-04-08T07:37:31;7.37;;;3.40;;
1074;SDS011;526;51.392;12.448;2023-04-08T07:39:57;3.37;;;2.90;;
1074;SDS011;526;51.392;12.448;2023-04-08T07:42:22;6.37;;;4.63;;
1074;SDS011;526;51.392;12.448;2023-04-08T07:44:48;4.30;;;3.27;;
1074;SDS011;526;51.392;12.448;2023-04-08T07:47:13;4.13;;;3.30;;
1074;SDS011;526;51.392;12.448;2023-04-08T07:49:40;9.27;;;4.87;;
1074;SDS011;526;51.392;12.448;2023-04-08T07:52:05;2.97;;;2.70;;
1074;SDS011;526;51.392;12.448;2023-04-08T07:54:31;4.97;;;4.40;;
1074;SDS011;526;51.392;12.448;2023-04-08T07:57:00;5.43;;;4.57;;
1074;SDS011;526;51.392;12.448;2023-04-08T07:59:26;4.77;;;3.73;;
1074;SDS011;526;51.392;12.448;2023-04-08T08:01:52;3.43;;;3.10;;
1074;SDS011;526;51.392;12.448;2023-04-08T08:04:17;6.03;;;4.10;;
1074;SDS011;526;51.392;12.448;2023-04-08T08:06:43;14.87;;;5.17;;
1074;SDS011;526;51.392;12.448;2023-04-08T08:09:08;7.43;;;4.80;;
1074;SDS011;526;51.392;12.448;2023-04-08T08:11:34;7.63;;;3.20;;
1074;SDS011;526;51.392;12.448;2023-04-08T08:13:59;8.80;;;5.47;;
1074;SDS011;526;51.392;12.448;2023-04-08T08:16:28;17.30;;;8.40;;
1074;SDS011;526;51.392;12.448;2023-04-08T08:18:54;17.97;;;7.80;;
1074;SDS011;526;51.392;12.448;2023-04-08T08:21:20;5.67;;;4.73;;
1074;SDS011;526;51.392;12.448;2023-04-08T08:23:45;8.73;;;6.37;;
1074;SDS011;526;51.392;12.448;2023-04-08T08:26:11;11.00;;;5.23;;
1074;SDS011;526;51.392;12.448;2023-04-08T08:28:37;5.50;;;3.10;;
1074;SDS011;526;51.392;12.448;2023-04-08T08:31:03;5.43;;;2.83;;
1074;SDS011;526;51.392;12.448;2023-04-08T08:33:30;8.70;;;4.53;;
1074;SDS011;526;51.392;12.448;2023-04-08T08:35:56;13.03;;;6.73;;
1074;SDS011;526;51.392;12.448;2023-04-08T08:38:22;6.90;;;4.20;;
1074;SDS011;526;51.392;12.448;2023-04-08T08:40:52;35.90;;;7.27;;
1074;SDS011;526;51.392;12.448;2023-04-08T08:43:19;13.67;;;5.33;;
1074;SDS011;526;51.392;12.448;2023-04-08T08:45:44;7.07;;;6.00;;
1074;SDS011;526;51.392;12.448;2023-04-08T08:48:10;6.10;;;3.23;;
1074;SDS011;526;51.392;12.448;2023-04-08T08:50:36;18.40;;;7.70;;
1074;SDS011;526;51.392;12.448;2023-04-08T08:53:01;10.80;;;6.07;;
1074;SDS011;526;51.392;12.448;2023-04-08T08:55:30;11.70;;;5.23;;
1074;SDS011;526;51.392;12.448;2023-04-08T08:57:59;12.33;;;5.80;;
1074;SDS011;526;51.392;12.448;2023-04-08T09:00:33;11.43;;;6.10;;
1074;SDS011;526;51.392;12.448;2023-04-08T09:05:53;13.13;;;5.97;;
1074;SDS011;526;51.392;12.448;2023-04-08T09:08:33;6.90;;;5.17;;
1074;SDS011;526;51.392;12.448;2023-04-08T09:11:14;6.30;;;4.03;;
1074;SDS011;526;51.392;12.448;2023-04-08T09:13:43;13.17;;;9.37;;
1074;SDS011;526;51.392;12.448;2023-04-08T09:16:10;9.20;;;5.30;;
1074;SDS011;526;51.392;12.448;2023-04-08T09:18:38;10.90;;;7.33;;
1074;SDS011;526;51.392;12.448;2023-04-08T09:21:05;20.73;;;7.77;;
1074;SDS011;526;51.392;12.448;2023-04-08T09:23:37;6.57;;;4.87;;
1074;SDS011;526;51.392;12.448;2023-04-08T09:26:11;16.97;;;4.40;;
1074;SDS011;526;51.392;12.448;2023-04-08T09:28:42;6.27;;;5.00;;
1074;SDS011;526;51.392;12.448;2023-04-08T09:31:16;3.93;;;3.73;;
1074;SDS011;526;51.392;12.448;2023-04-08T09:33:44;7.30;;;3.77;;
1074;SDS011;526;51.392;12.448;2023-04-08T09:36:11;5.33;;;3.07;;
1074;SDS011;526;51.392;12.448;2023-04-08T09:38:44;10.73;;;5.37;;
1074;SDS011;526;51.392;12.448;2023-04-08T09:41:15;9.57;;;3.97;;
1074;SDS011;526;51.392;12.448;2023-04-08T09:43:52;6.93;;;4.97;;
1074;SDS011;526;51.392;12.448;2023-04-08T09:46:26;8.10;;;7.07;;
1074;SDS011;526;51.392;12.448;2023-04-08T09:49:04;9.87;;;6.10;;
1074;SDS011;526;51.392;12.448;2023-04-08T09:51:32;11.63;;;6.17;;
1074;SDS011;526;51.392;12.448;2023-04-08T09:54:13;15.67;;;6.00;;
1074;SDS011;526;51.392;12.448;2023-04-08T09:56:50;25.37;;;8.07;;
1074;SDS011;526;51.392;12.448;2023-04-08T09:59:26;9.20;;;6.60;;
1074;SDS011;526;51.392;12.448;2023-04-08T10:02:00;19.77;;;8.07;;
1074;SDS011;526;51.392;12.448;2023-04-08T10:04:34;9.80;;;6.47;;
1074;SDS011;526;51.392;12.448;2023-04-08T10:07:03;11.63;;;5.87;;
1074;SDS011;526;51.392;12.448;2023-04-08T10:09:31;12.03;;;6.90;;
1074;SDS011;526;51.392;12.448;2023-04-08T10:11:57;17.43;;;6.60;;
1074;SDS011;526;51.392;12.448;2023-04-08T10:14:25;5.07;;;3.90;;
1074;SDS011;526;51.392;12.448;2023-04-08T10:17:38;8.47;;;5.73;;
1074;SDS011;526;51.392;12.448;2023-04-08T10:19:59;15.17;;;6.83;;
1074;SDS011;526;51.392;12.448;2023-04-08T10:27:39;13.63;;;5.70;;
1074;SDS011;526;51.392;12.448;2023-04-08T10:32:52;15.63;;;4.83;;
1074;SDS011;526;51.392;12.448;2023-04-08T10:35:28;7.03;;;5.73;;
1074;SDS011;526;51.392;12.448;2023-04-08T10:37:54;12.20;;;6.67;;
1074;SDS011;526;51.392;12.448;2023-04-08T10:40:20;13.47;;;6.23;;
1074;SDS011;526;51.392;12.448;2023-04-08T10:42:45;5.73;;;4.73;;
1074;SDS011;526;51.392;12.448;2023-04-08T10:45:15;9.33;;;6.47;;
1074;SDS011;526;51.392;12.448;2023-04-08T10:47:48;4.50;;;4.20;;
1074;SDS011;526;51.392;12.448;2023-04-08T10:50:18;6.60;;;5.13;;
1074;SDS011;526;51.392;12.448;2023-04-08T10:52:50;9.97;;;5.73;;
1074;SDS011;526;51.392;12.448;2023-04-08T10:55:23;8.27;;;4.80;;
1074;SDS011;526;51.392;12.448;2023-04-08T10:57:50;8.40;;;4.80;;
1074;SDS011;526;51.392;12.448;2023-04-08T11:00:16;10.50;;;6.27;;
1074;SDS011;526;51.392;12.448;2023-04-08T11:02:42;10.23;;;6.10;;
1074;SDS011;526;51.392;12.448;2023-04-08T11:05:11;5.03;;;4.70;;
1074;SDS011;526;51.392;12.448;2023-04-08T11:07:40;10.83;;;6.53;;
1074;SDS011;526;51.392;12.448;2023-04-08T11:10:06;18.37;;;7.00;;
1074;SDS011;526;51.392;12.448;2023-04-08T11:12:33;12.43;;;6.77;;
1074;SDS011;526;51.392;12.448;2023-04-08T11:14:59;14.93;;;6.87;;
1074;SDS011;526;51.392;12.448;2023-04-08T11:17:26;12.23;;;6.93;;
1074;SDS011;526;51.392;12.448;2023-04-08T11:19:52;10.53;;;4.53;;
1074;SDS011;526;51.392;12.448;2023-04-08T11:22:19;8.57;;;7.03;;
1074;SDS011;526;51.392;12.448;2023-04-08T11:24:44;14.43;;;5.60;;
1074;SDS011;526;51.392;12.448;2023-04-08T11:27:11;12.13;;;5.73;;
1074;SDS011;526;51.392;12.448;2023-04-08T11:29:36;10.47;;;6.07;;
1074;SDS011;526;51.392;12.448;2023-04-08T11:32:02;14.63;;;6.37;;
1074;SDS011;526;51.392;12.448;2023-04-08T11:34:28;5.53;;;4.93;;
1074;SDS011;526;51.392;12.448;2023-04-08T11:36:55;9.83;;;6.73;;
1074;SDS011;526;51.392;12.448;2023-04-08T11:39:23;4.17;;;3.60;;
1074;SDS011;526;51.392;12.448;2023-04-08T11:41:48;6.17;;;4.67;;
1074;SDS011;526;51.392;12.448;2023-04-08T11:44:14;7.80;;;5.40;;
1074;SDS011;526;51.392;12.448;2023-04-08T11:46:39;13.43;;;3.73;;
1074;SDS011;526;51.392;12.448;2023-04-08T11:49:06;9.00;;;5.73;;
1074;SDS011;526;51.392;12.448;2023-04-08T11:51:33;4.90;;;2.70;;
1074;SDS011;526;51.392;12.448;2023-04-08T11:54:03;6.57;;;3.87;;
1074;SDS011;526;51.392;12.448;2023-04-08T11:56:30;10.60;;;6.83;;
1074;SDS011;526;51.392;12.448;2023-04-08T11:59:07;4.13;;;2.60;;
1074;SDS011;526;51.392;12.448;2023-04-08T12:01:33;8.77;;;5.20;;
1074;SDS011;526;51.392;12.448;2023-04-08T12:03:59;19.90;;;5.80;;
1074;SDS011;526;51.392;12.448;2023-04-08T12:06:26;4.77;;;3.90;;
1074;SDS011;526;51.392;12.448;2023-04-08T12:08:53;8.67;;;4.43;;
1074;SDS011;526;51.392;12.448;2023-04-08T12:11:19;8.27;;;4.10;;
1074;SDS011;526;51.392;12.448;2023-04-08T12:13:45;6.13;;;5.07;;
1074;SDS011;526;51.392;12.448;2023-04-08T12:16:13;3.97;;;3.77;;
1074;SDS011;526;51.392;12.448;2023-04-08T12:18:39;3.93;;;3.73;;
1074;SDS011;526;51.392;12.448;2023-04-08T12:21:04;9.77;;;4.20;;
1074;SDS011;526;51.392;12.448;2023-04-08T12:23:30;14.07;;;5.53;;
1074;SDS011;526;51.392;12.448;2023-04-08T12:25:56;6.33;;;3.40;;
1074;SDS011;526;51.392;12.448;2023-04-08T12:28:23;14.00;;;5.57;;
1074;SDS011;526;51.392;12.448;2023-04-08T12:30:52;6.70;;;5.60;;
1074;SDS011;526;51.392;12.448;2023-04-08T12:33:17;8.53;;;3.70;;
1074;SDS011;526;51.392;12.448;2023-04-08T12:35:45;9.60;;;6.30;;
1074;SDS011;526;51.392;12.448;2023-04-08T12:38:11;11.43;;;5.37;;
1074;SDS011;526;51.392;12.448;2023-04-08T12:40:39;7.40;;;2.53;;
1074;SDS011;526;51.392;12.448;2023-04-08T12:43:07;10.50;;;4.67;;
1074;SDS011;526;51.392;12.448;2023-04-08T12:45:35;7.80;;;3.73;;
1074;SDS011;526;51.392;12.448;2023-04-08T12:48:00;12.40;;;5.07;;
1074;SDS011;526;51.392;12.448;2023-04-08T12:50:26;4.80;;;4.33;;
1074;SDS011;526;51.392;12.448;2023-04-08T12:52:52;7.23;;;3.43;;
1074;SDS011;526;51.392;12.448;2023-04-08T12:55:17;5.10;;;3.33;;
1074;SDS011;526;51.392;12.448;2023-04-08T12:57:53;7.07;;;4.67;;
1074;SDS011;526;51.392;12.448;2023-04-08T13:00:21;7.70;;;4.07;;
1074;SDS011;526;51.392;12.448;2023-04-08T13:02:54;5.27;;;3.90;;
1074;SDS011;526;51.392;12.448;2023-04-08T13:05:23;7.67;;;4.20;;
1074;SDS011;526;51.392;12.448;2023-04-08T13:07:48;7.60;;;4.83;;
1074;SDS011;526;51.392;12.448;2023-04-08T13:10:19;6.50;;;5.17;;
1074;SDS011;526;51.392;12.448;2023-04-08T13:12:46;7.27;;;4.60;;
1074;SDS011;526;51.392;12.448;2023-04-08T13:15:14;18.20;;;4.23;;
1074;SDS011;526;51.392;12.448;2023-04-08T13:17:40;7.23;;;4.33;;
1074;SDS011;526;51.392;12.448;2023-04-08T13:20:09;17.60;;;4.37;;
1074;SDS011;526;51.392;12.448;2023-04-08T13:22:36;9.80;;;6.23;;
1074;SDS011;526;51.392;12.448;2023-04-08T13:25:12;6.57;;;4.10;;
1074;SDS011;526;51.392;12.448;2023-04-08T13:27:45;4.30;;;2.40;;
1074;SDS011;526;51.392;12.448;2023-04-08T13:30:10;10.87;;;5.27;;
1074;SDS011;526;51.392;12.448;2023-04-08T13:32:36;6.93;;;5.33;;
1074;SDS011;526;51.392;12.448;2023-04-08T13:35:04;9.00;;;5.73;;
1074;SDS011;526;51.392;12.448;2023-04-08T13:37:30;6.13;;;3.83;;
1074;SDS011;526;51.392;12.448;2023-04-08T13:39:56;6.30;;;3.67;;
1074;SDS011;526;51.392;12.448;2023-04-08T13:42:21;8.20;;;3.10;;
1074;SDS011;526;51.392;12.448;2023-04-08T13:44:47;11.00;;;3.67;;
1074;SDS011;526;51.392;12.448;2023-04-08T13:47:13;8.73;;;5.60;;
1074;SDS011;526;51.392;12.448;2023-04-08T13:49:38;8.70;;;4.70;;
1074;SDS011;526;51.392;12.448;2023-04-08T13:52:04;16.23;;;4.40;;
1074;SDS011;526;51.392;12.448;2023-04-08T13:54:29;10.40;;;3.47;;
1074;SDS011;526;51.392;12.448;2023-04-08T13:56:55;3.93;;;3.63;;
1074;SDS011;526;51.392;12.448;2023-04-08T13:59:21;4.30;;;3.63;;
1074;SDS011;526;51.392;12.448;2023-04-08T14:01:46;4.87;;;3.07;;
1074;SDS011;526;51.392;12.448;2023-04-08T14:04:12;4.70;;;3.50;;
1074;SDS011;526;51.392;12.448;2023-04-08T14:06:38;5.87;;;3.30;;
1074;SDS011;526;51.392;12.448;2023-04-08T14:09:03;4.13;;;3.53;;
1074;SDS011;526;51.392;12.448;2023-04-08T14:11:29;10.40;;;5.43;;
1074;SDS011;526;51.392;12.448;2023-04-08T14:13:54;4.67;;;3.03;;
1074;SDS011;526;51.392;12.448;2023-04-08T14:16:20;10.23;;;3.83;;
1074;SDS011;526;51.392;12.448;2023-04-08T14:18:45;4.30;;;2.13;;
1074;SDS011;526;51.392;12.448;2023-04-08T14:21:11;5.93;;;2.30;;
1074;SDS011;526;51.392;12.448;2023-04-08T14:23:41;7.43;;;3.77;;
1074;SDS011;526;51.392;12.448;2023-04-08T14:26:06;5.60;;;3.40;;
1074;SDS011;526;51.392;12.448;2023-04-08T14:28:32;4.50;;;2.70;;
1074;SDS011;526;51.392;12.448;2023-04-08T14:30:57;4.07;;;3.80;;
1074;SDS011;526;51.392;12.448;2023-04-08T14:33:23;7.20;;;4.00;;
1074;SDS011;526;51.392;12.448;2023-04-08T14:35:48;6.47;;;4.20;;
1074;SDS011;526;51.392;12.448;2023-04-08T14:38:16;3.33;;;2.23;;
1074;SDS011;526;51.392;12.448;2023-04-08T14:40:44;12.13;;;3.37;;
1074;SDS011;526;51.392;12.448;2023-04-08T14:43:10;11.43;;;3.87;;
1074;SDS011;526;51.392;12.448;2023-04-08T14:45:37;9.70;;;2.97;;
1074;SDS011;526;51.392;12.448;2023-04-08T14:48:03;10.10;;;3.13;;
1074;SDS011;526;51.392;12.448;2023-04-08T14:50:31;11.73;;;5.23;;
1074;SDS011;526;51.392;12.448;2023-04-08T14:52:56;6.00;;;4.20;;
1074;SDS011;526;51.392;12.448;2023-04-08T14:55:22;7.10;;;4.93;;
1074;SDS011;526;51.392;12.448;2023-04-08T14:57:49;11.03;;;3.80;;
1074;SDS011;526;51.392;12.448;2023-04-08T15:00:14;4.73;;;4.43;;
1074;SDS011;526;51.392;12.448;2023-04-08T15:02:40;6.73;;;5.00;;
1074;SDS011;526;51.392;12.448;2023-04-08T15:05:06;3.20;;;3.00;;
1074;SDS011;526;51.392;12.448;2023-04-08T15:07:40;6.47;;;5.07;;
1074;SDS011;526;51.392;12.448;2023-04-08T15:10:07;4.20;;;3.00;;
1074;SDS011;526;51.392;12.448;2023-04-08T15:12:33;10.90;;;4.83;;
1074;SDS011;526;51.392;12.448;2023-04-08T15:14:58;7.20;;;4.07;;
1074;SDS011;526;51.392;12.448;2023-04-08T15:17:24;10.47;;;4.03;;
1074;SDS011;526;51.392;12.448;2023-04-08T15:19:52;5.00;;;3.97;;
1074;SDS011;526;51.392;12.448;2023-04-08T15:22:18;5.60;;;2.80;;
1074;SDS011;526;51.392;12.448;2023-04-08T15:25:01;14.23;;;4.17;;
1074;SDS011;526;51.392;12.448;2023-04-08T15:27:29;6.03;;;3.80;;